Kairo, Egypten

11:26 AM EET on November 22, 2017 (GMT +0200)
Cairo | | Change Station

Elev 243 ft 30.13 °N, 31.40 °E | Updated 26 minutes ago

Växlande molnighet
Växlande molnighet
66 °F
Feels Like 66 °F
N
14
Vind Växlande Vind from V/NV

Idag
High -- | Low -- °F
--% Chance of Precip.
Yesterday
High -- | Low -- °F
Precip. -- tum
Lufttryck 30.12 tum
Sikt 6.2 miles
Molnigt Växlande molnighet 2000 ft
Daggpunkt 48 °F
Luftfuktighet 52%
Rainfall 0.00 tum
Snow Depth Not available.
6:26 AM 4:55 PM
Första kvarteret, 13% visible
METAR HECA 220900Z 29012KT 9999 SCT020 19/09 Q1020
Lufttryck 30.12 tum
Sikt 6.2 miles
Molnigt Växlande molnighet 2000 ft
Daggpunkt 48 °F
Luftfuktighet 52%
Rainfall 0.00 tum
Snow Depth Not available.
6:26 AM 4:55 PM
Första kvarteret, 13% visible
METAR HECA 220900Z 29012KT 9999 SCT020 19/09 Q1020

Get Severe Weather Alerts

Thanks for signing up!

Be on the lookout for a verification email in your inbox.

You'll start receiving the daily forecast at 6 AM.

×

10-Day Weather Forecast

No radar image for this location.
×

Almanac

Astronomi

Nov. 22, 2017 Rise Set
Actual Time
Civil Twilight
Nautical Twilight
Astronomical Twilight
Månen
Length Of Visible Light
Dagens längd
Tomorrow will be .
, % of the Moon is Illuminated

Today's Extremes

Country Highs Country Lows

Community

WunderPhotos

Category 6

Welcome to Category 6. This is the collective home for Weather Underground's featured writeups by Dr. Jeff Masters (right), Bob Henson (left), Chris Burt, and other regular contributors.

Nearby

Air Quality

  Air Quality AQ Index Pollutant
Not available.

Snödjup

Station Depth Elevation

Earthquake Activity

Stad Distance Mag. Time & Date
Minimum magnitude displayed is 2.5.

Coastal Water Temperatures

Plats Temperatur

Stations

Nearby Weather Stations

Station Location Temp Vindavkylning Daggpunkt Luftfuktighet Vind Precip. Elev Uppdaterad Type